Terminal Aerodrome Forecast
Issued by NWS Kansas City/Pleasant Hill, MO

Home | Current Version | Previous Version | Text Only | Print | Product List | Glossary On
Versions: 1 2 3 4 5 6 7 8 9 10 11 12 13 14
000
FTUS43 KEAX 192300
TAFMCI
TAF
KMCI 192335Z 2000/2024 VRB04KT P6SM FEW150
     FM200600 17007KT P6SM SCT150
     FM201800 19014KT P6SM FEW070=

USA.gov is the U.S. government's official web portal to all federal, state and local government web resources and services.